sensor_id;sensor_type;location;lat;lon;timestamp;pressure;altitude;pressure_sealevel;temperature;humidity
5595;BME280;1003;48.002;7.788;2023-09-07T00:01:36;99361.16;;;16.62;100.00
5595;BME280;1003;48.002;7.788;2023-09-07T00:04:04;99358.59;;;16.63;100.00
5595;BME280;1003;48.002;7.788;2023-09-07T00:06:33;99347.56;;;16.63;100.00
5595;BME280;1003;48.002;7.788;2023-09-07T00:09:02;99350.91;;;16.65;100.00
5595;BME280;1003;48.002;7.788;2023-09-07T00:11:32;99341.53;;;16.67;100.00
5595;BME280;1003;48.002;7.788;2023-09-07T00:13:59;99345.59;;;16.72;100.00
5595;BME280;1003;48.002;7.788;2023-09-07T00:16:26;99335.31;;;16.77;100.00
5595;BME280;1003;48.002;7.788;2023-09-07T00:18:53;99326.81;;;16.78;100.00
5595;BME280;1003;48.002;7.788;2023-09-07T00:21:20;99313.09;;;16.84;100.00
5595;BME280;1003;48.002;7.788;2023-09-07T00:23:49;99301.06;;;16.89;100.00
5595;BME280;1003;48.002;7.788;2023-09-07T00:26:16;99294.03;;;16.97;100.00
5595;BME280;1003;48.002;7.788;2023-09-07T00:28:44;99283.75;;;17.00;100.00
5595;BME280;1003;48.002;7.788;2023-09-07T00:31:11;99287.16;;;17.00;100.00
5595;BME280;1003;48.002;7.788;2023-09-07T00:33:38;99285.38;;;17.02;100.00
5595;BME280;1003;48.002;7.788;2023-09-07T00:36:05;99276.03;;;17.03;100.00
5595;BME280;1003;48.002;7.788;2023-09-07T00:38:32;99277.59;;;17.07;100.00
5595;BME280;1003;48.002;7.788;2023-09-07T00:41:01;99268.47;;;17.01;100.00
5595;BME280;1003;48.002;7.788;2023-09-07T00:43:29;99264.31;;;16.99;100.00
5595;BME280;1003;48.002;7.788;2023-09-07T00:45:56;99332.22;;;16.94;100.00
5595;BME280;1003;48.002;7.788;2023-09-07T00:48:23;99335.69;;;16.91;100.00
5595;BME280;1003;48.002;7.788;2023-09-07T00:50:50;99347.56;;;16.91;100.00
5595;BME280;1003;48.002;7.788;2023-09-07T00:53:18;99347.72;;;16.86;100.00
5595;BME280;1003;48.002;7.788;2023-09-07T00:55:45;99352.84;;;16.85;100.00
5595;BME280;1003;48.002;7.788;2023-09-07T00:58:14;99354.59;;;16.83;100.00
5595;BME280;1003;48.002;7.788;2023-09-07T01:00:41;99343.59;;;16.82;100.00
5595;BME280;1003;48.002;7.788;2023-09-07T01:03:08;99340.97;;;16.85;100.00
5595;BME280;1003;48.002;7.788;2023-09-07T01:05:52;99344.97;;;16.92;100.00
5595;BME280;1003;48.002;7.788;2023-09-07T01:08:26;99338.53;;;17.07;100.00
5595;BME280;1003;48.002;7.788;2023-09-07T01:10:55;99331.53;;;17.14;100.00
5595;BME280;1003;48.002;7.788;2023-09-07T01:13:24;99322.16;;;17.16;100.00
5595;BME280;1003;48.002;7.788;2023-09-07T01:15:52;99323.44;;;17.27;100.00
5595;BME280;1003;48.002;7.788;2023-09-07T01:18:19;99320.63;;;17.35;100.00
5595;BME280;1003;48.002;7.788;2023-09-07T01:20:48;99314.34;;;17.45;100.00
5595;BME280;1003;48.002;7.788;2023-09-07T01:23:17;99313.50;;;17.45;100.00
5595;BME280;1003;48.002;7.788;2023-09-07T01:25:45;99312.63;;;17.46;100.00
5595;BME280;1003;48.002;7.788;2023-09-07T01:28:12;99321.06;;;17.46;100.00
5595;BME280;1003;48.002;7.788;2023-09-07T01:30:41;99327.03;;;17.45;100.00
5595;BME280;1003;48.002;7.788;2023-09-07T01:33:08;99322.94;;;17.41;100.00
5595;BME280;1003;48.002;7.788;2023-09-07T01:35:36;99325.50;;;17.41;100.00
5595;BME280;1003;48.002;7.788;2023-09-07T01:38:04;99284.09;;;17.38;100.00
5595;BME280;1003;48.002;7.788;2023-09-07T01:40:33;99292.63;;;17.37;100.00
5595;BME280;1003;48.002;7.788;2023-09-07T01:43:00;99291.78;;;17.36;100.00
5595;BME280;1003;48.002;7.788;2023-09-07T01:45:27;99296.13;;;17.34;100.00
5595;BME280;1003;48.002;7.788;2023-09-07T01:47:54;99293.66;;;17.31;100.00
5595;BME280;1003;48.002;7.788;2023-09-07T01:50:21;99308.97;;;17.29;100.00
5595;BME280;1003;48.002;7.788;2023-09-07T01:52:48;99313.06;;;17.34;100.00
5595;BME280;1003;48.002;7.788;2023-09-07T01:55:15;99305.47;;;17.32;100.00
5595;BME280;1003;48.002;7.788;2023-09-07T01:57:44;99312.34;;;17.30;100.00
5595;BME280;1003;48.002;7.788;2023-09-07T02:00:12;99316.69;;;17.26;100.00
5595;BME280;1003;48.002;7.788;2023-09-07T02:02:39;99321.00;;;17.24;100.00
5595;BME280;1003;48.002;7.788;2023-09-07T02:05:07;99321.91;;;17.23;100.00
5595;BME280;1003;48.002;7.788;2023-09-07T02:07:35;99323.56;;;17.24;100.00
5595;BME280;1003;48.002;7.788;2023-09-07T02:10:02;99327.00;;;17.22;100.00
5595;BME280;1003;48.002;7.788;2023-09-07T02:12:30;99322.81;;;17.21;100.00
5595;BME280;1003;48.002;7.788;2023-09-07T02:15:01;99334.75;;;17.19;100.00
5595;BME280;1003;48.002;7.788;2023-09-07T02:17:29;99338.13;;;17.19;100.00
5595;BME280;1003;48.002;7.788;2023-09-07T02:19:56;99346.50;;;17.21;100.00
5595;BME280;1003;48.002;7.788;2023-09-07T02:22:24;99349.78;;;17.25;100.00
5595;BME280;1003;48.002;7.788;2023-09-07T02:24:51;99343.81;;;17.26;100.00
5595;BME280;1003;48.002;7.788;2023-09-07T02:27:18;99353.75;;;17.32;100.00
5595;BME280;1003;48.002;7.788;2023-09-07T02:29:45;99355.38;;;17.35;100.00
5595;BME280;1003;48.002;7.788;2023-09-07T02:32:13;99352.78;;;17.36;100.00
5595;BME280;1003;48.002;7.788;2023-09-07T02:34:40;99352.78;;;17.36;100.00
5595;BME280;1003;48.002;7.788;2023-09-07T02:37:08;99358.75;;;17.35;100.00
5595;BME280;1003;48.002;7.788;2023-09-07T02:39:35;99358.00;;;17.31;100.00
5595;BME280;1003;48.002;7.788;2023-09-07T02:42:03;99372.50;;;17.29;100.00
5595;BME280;1003;48.002;7.788;2023-09-07T02:44:30;99367.63;;;17.23;100.00
5595;BME280;1003;48.002;7.788;2023-09-07T02:46:57;99365.22;;;17.19;100.00
5595;BME280;1003;48.002;7.788;2023-09-07T02:49:25;99370.56;;;17.11;100.00
5595;BME280;1003;48.002;7.788;2023-09-07T02:51:52;99366.50;;;17.05;100.00
5595;BME280;1003;48.002;7.788;2023-09-07T02:54:19;99370.25;;;16.95;100.00
5595;BME280;1003;48.002;7.788;2023-09-07T02:56:46;99366.59;;;16.77;100.00
5595;BME280;1003;48.002;7.788;2023-09-07T02:59:13;99360.44;;;16.58;100.00
5595;BME280;1003;48.002;7.788;2023-09-07T03:01:40;99355.72;;;16.46;100.00
5595;BME280;1003;48.002;7.788;2023-09-07T03:04:07;99352.19;;;16.23;100.00
5595;BME280;1003;48.002;7.788;2023-09-07T03:06:36;99346.69;;;16.11;100.00
5595;BME280;1003;48.002;7.788;2023-09-07T03:09:03;99334.44;;;15.95;100.00
5595;BME280;1003;48.002;7.788;2023-09-07T03:11:34;99328.00;;;15.85;100.00
5595;BME280;1003;48.002;7.788;2023-09-07T03:14:01;99316.31;;;15.80;100.00
5595;BME280;1003;48.002;7.788;2023-09-07T03:16:28;99307.00;;;15.80;100.00
5595;BME280;1003;48.002;7.788;2023-09-07T03:18:55;99308.09;;;15.73;100.00
5595;BME280;1003;48.002;7.788;2023-09-07T03:21:23;99301.63;;;15.61;100.00
5595;BME280;1003;48.002;7.788;2023-09-07T03:23:56;99316.31;;;15.50;100.00
5595;BME280;1003;48.002;7.788;2023-09-07T03:26:23;99319.03;;;15.42;100.00
5595;BME280;1003;48.002;7.788;2023-09-07T03:28:50;99320.97;;;15.34;100.00
5595;BME280;1003;48.002;7.788;2023-09-07T03:31:17;99319.66;;;15.19;100.00
5595;BME280;1003;48.002;7.788;2023-09-07T03:33:44;99322.38;;;15.13;100.00
5595;BME280;1003;48.002;7.788;2023-09-07T03:36:11;99319.19;;;15.07;100.00
5595;BME280;1003;48.002;7.788;2023-09-07T03:38:40;99315.28;;;14.93;100.00
5595;BME280;1003;48.002;7.788;2023-09-07T03:41:09;99320.41;;;14.92;100.00
5595;BME280;1003;48.002;7.788;2023-09-07T03:43:35;99311.22;;;14.88;100.00
5595;BME280;1003;48.002;7.788;2023-09-07T03:46:03;99308.72;;;14.86;100.00
5595;BME280;1003;48.002;7.788;2023-09-07T03:48:30;99295.19;;;14.87;100.00
5595;BME280;1003;48.002;7.788;2023-09-07T03:50:56;99304.53;;;14.85;100.00
5595;BME280;1003;48.002;7.788;2023-09-07T03:53:23;99278.47;;;14.82;100.00
5595;BME280;1003;48.002;7.788;2023-09-07T03:55:50;99275.06;;;14.83;100.00
5595;BME280;1003;48.002;7.788;2023-09-07T03:58:19;99275.94;;;14.82;100.00
5595;BME280;1003;48.002;7.788;2023-09-07T04:00:46;99278.53;;;14.80;100.00
5595;BME280;1003;48.002;7.788;2023-09-07T04:03:13;99262.63;;;14.75;100.00
5595;BME280;1003;48.002;7.788;2023-09-07T04:05:41;99259.28;;;14.73;100.00
5595;BME280;1003;48.002;7.788;2023-09-07T04:08:08;99334.06;;;14.85;100.00
5595;BME280;1003;48.002;7.788;2023-09-07T04:10:37;99317.22;;;14.84;100.00
5595;BME280;1003;48.002;7.788;2023-09-07T04:13:04;99322.31;;;14.82;100.00
5595;BME280;1003;48.002;7.788;2023-09-07T04:15:33;99317.31;;;14.79;100.00
5595;BME280;1003;48.002;7.788;2023-09-07T04:18:02;99322.53;;;14.75;100.00
5595;BME280;1003;48.002;7.788;2023-09-07T04:20:29;99319.22;;;14.71;100.00
5595;BME280;1003;48.002;7.788;2023-09-07T04:22:56;99322.66;;;14.68;100.00
5595;BME280;1003;48.002;7.788;2023-09-07T04:25:23;99322.63;;;14.70;100.00
5595;BME280;1003;48.002;7.788;2023-09-07T04:27:50;99315.03;;;14.70;100.00
5595;BME280;1003;48.002;7.788;2023-09-07T04:30:17;99319.19;;;14.73;100.00
5595;BME280;1003;48.002;7.788;2023-09-07T04:32:45;99318.31;;;14.74;100.00
5595;BME280;1003;48.002;7.788;2023-09-07T04:35:12;99314.69;;;14.84;100.00
5595;BME280;1003;48.002;7.788;2023-09-07T04:37:42;99328.16;;;14.84;100.00
5595;BME280;1003;48.002;7.788;2023-09-07T04:40:10;99266.53;;;14.87;100.00
5595;BME280;1003;48.002;7.788;2023-09-07T04:42:37;99264.06;;;14.85;100.00
5595;BME280;1003;48.002;7.788;2023-09-07T04:45:06;99269.06;;;14.87;100.00
5595;BME280;1003;48.002;7.788;2023-09-07T04:47:33;99267.31;;;14.89;100.00
5595;BME280;1003;48.002;7.788;2023-09-07T04:50:05;99264.66;;;14.93;100.00
5595;BME280;1003;48.002;7.788;2023-09-07T04:52:33;99268.78;;;14.98;100.00
5595;BME280;1003;48.002;7.788;2023-09-07T04:55:00;99265.31;;;15.02;100.00
5595;BME280;1003;48.002;7.788;2023-09-07T04:57:27;99272.81;;;15.05;100.00
5595;BME280;1003;48.002;7.788;2023-09-07T04:59:54;99275.25;;;15.08;100.00
5595;BME280;1003;48.002;7.788;2023-09-07T05:02:21;99273.47;;;15.11;100.00
5595;BME280;1003;48.002;7.788;2023-09-07T05:04:48;99288.59;;;15.14;100.00
5595;BME280;1003;48.002;7.788;2023-09-07T05:07:17;99290.16;;;15.18;100.00
5595;BME280;1003;48.002;7.788;2023-09-07T05:09:44;99282.53;;;15.20;100.00
5595;BME280;1003;48.002;7.788;2023-09-07T05:12:11;99283.34;;;15.20;100.00
5595;BME280;1003;48.002;7.788;2023-09-07T05:14:40;99295.84;;;15.27;100.00
5595;BME280;1003;48.002;7.788;2023-09-07T05:17:06;99299.19;;;15.29;100.00
5595;BME280;1003;48.002;7.788;2023-09-07T05:19:33;99292.28;;;15.34;100.00
5595;BME280;1003;48.002;7.788;2023-09-07T05:22:01;99302.31;;;15.37;100.00
5595;BME280;1003;48.002;7.788;2023-09-07T05:24:29;99294.63;;;15.40;100.00
5595;BME280;1003;48.002;7.788;2023-09-07T05:26:56;99305.50;;;15.43;100.00
5595;BME280;1003;48.002;7.788;2023-09-07T05:29:24;99307.00;;;15.51;100.00
5595;BME280;1003;48.002;7.788;2023-09-07T05:31:51;99313.34;;;15.67;100.00
5595;BME280;1003;48.002;7.788;2023-09-07T05:34:17;99312.19;;;15.77;100.00
5595;BME280;1003;48.002;7.788;2023-09-07T05:36:45;99332.00;;;15.92;100.00
5595;BME280;1003;48.002;7.788;2023-09-07T05:39:11;99316.56;;;16.00;100.00
5595;BME280;1003;48.002;7.788;2023-09-07T05:41:40;99312.75;;;16.15;100.00
5595;BME280;1003;48.002;7.788;2023-09-07T05:44:10;99311.69;;;16.22;100.00
5595;BME280;1003;48.002;7.788;2023-09-07T05:46:37;99322.38;;;16.32;100.00
5595;BME280;1003;48.002;7.788;2023-09-07T05:49:04;99332.13;;;16.44;100.00
5595;BME280;1003;48.002;7.788;2023-09-07T05:51:31;99343.88;;;16.46;100.00
5595;BME280;1003;48.002;7.788;2023-09-07T05:53:58;99343.94;;;16.45;100.00
5595;BME280;1003;48.002;7.788;2023-09-07T05:56:25;99354.31;;;16.37;100.00
5595;BME280;1003;48.002;7.788;2023-09-07T05:58:54;99353.53;;;16.35;100.00
5595;BME280;1003;48.002;7.788;2023-09-07T06:01:21;99359.41;;;16.37;100.00
5595;BME280;1003;48.002;7.788;2023-09-07T06:03:48;99343.28;;;16.38;100.00
5595;BME280;1003;48.002;7.788;2023-09-07T06:06:18;99346.59;;;16.40;100.00
5595;BME280;1003;48.002;7.788;2023-09-07T06:08:45;99349.53;;;16.54;100.00
5595;BME280;1003;48.002;7.788;2023-09-07T06:11:14;99354.66;;;16.81;100.00
5595;BME280;1003;48.002;7.788;2023-09-07T06:13:45;99361.50;;;17.04;100.00
5595;BME280;1003;48.002;7.788;2023-09-07T06:16:16;99340.91;;;17.37;100.00
5595;BME280;1003;48.002;7.788;2023-09-07T06:18:43;99354.22;;;17.67;100.00
5595;BME280;1003;48.002;7.788;2023-09-07T06:21:10;99357.84;;;18.06;100.00
5595;BME280;1003;48.002;7.788;2023-09-07T06:23:37;99375.56;;;18.53;100.00
5595;BME280;1003;48.002;7.788;2023-09-07T06:26:04;99373.84;;;18.96;100.00
5595;BME280;1003;48.002;7.788;2023-09-07T06:28:32;99391.53;;;19.40;100.00
5595;BME280;1003;48.002;7.788;2023-09-07T06:30:59;99403.91;;;19.49;100.00
5595;BME280;1003;48.002;7.788;2023-09-07T06:33:27;99412.66;;;19.83;100.00
5595;BME280;1003;48.002;7.788;2023-09-07T06:35:54;99440.56;;;20.42;100.00
5595;BME280;1003;48.002;7.788;2023-09-07T06:38:22;99412.06;;;20.88;100.00
5595;BME280;1003;48.002;7.788;2023-09-07T06:40:49;99441.59;;;21.79;100.00
5595;BME280;1003;48.002;7.788;2023-09-07T06:43:16;99454.34;;;21.96;100.00
5595;BME280;1003;48.002;7.788;2023-09-07T06:45:44;99494.50;;;21.78;100.00
5595;BME280;1003;48.002;7.788;2023-09-07T06:48:11;99530.41;;;21.77;100.00
5595;BME280;1003;48.002;7.788;2023-09-07T06:50:40;99538.94;;;21.60;100.00
5595;BME280;1003;48.002;7.788;2023-09-07T06:53:07;99527.84;;;21.77;100.00
5595;BME280;1003;48.002;7.788;2023-09-07T06:55:34;99535.81;;;21.88;100.00
5595;BME280;1003;48.002;7.788;2023-09-07T06:58:01;99534.28;;;22.18;100.00
5595;BME280;1003;48.002;7.788;2023-09-07T07:00:28;99521.91;;;22.42;100.00
5595;BME280;1003;48.002;7.788;2023-09-07T07:02:55;99514.63;;;22.50;100.00
5595;BME280;1003;48.002;7.788;2023-09-07T07:05:22;99534.13;;;23.61;100.00
5595;BME280;1003;48.002;7.788;2023-09-07T07:07:50;99522.00;;;23.48;100.00
5595;BME280;1003;48.002;7.788;2023-09-07T07:10:17;99524.84;;;23.74;100.00
5595;BME280;1003;48.002;7.788;2023-09-07T07:12:44;99520.88;;;24.40;100.00
5595;BME280;1003;48.002;7.788;2023-09-07T07:15:11;99498.88;;;23.93;100.00
5595;BME280;1003;48.002;7.788;2023-09-07T07:17:38;99487.19;;;23.58;100.00
5595;BME280;1003;48.002;7.788;2023-09-07T07:20:07;99489.22;;;23.53;100.00
5595;BME280;1003;48.002;7.788;2023-09-07T07:22:34;99492.81;;;24.22;100.00
5595;BME280;1003;48.002;7.788;2023-09-07T07:25:04;99491.53;;;24.44;100.00
5595;BME280;1003;48.002;7.788;2023-09-07T07:27:31;99478.59;;;24.58;100.00
5595;BME280;1003;48.002;7.788;2023-09-07T07:29:58;99471.38;;;23.66;100.00
5595;BME280;1003;48.002;7.788;2023-09-07T07:32:25;99474.41;;;24.01;100.00
5595;BME280;1003;48.002;7.788;2023-09-07T07:34:52;99460.91;;;23.83;100.00
5595;BME280;1003;48.002;7.788;2023-09-07T07:37:19;99460.78;;;23.56;100.00
5595;BME280;1003;48.002;7.788;2023-09-07T07:39:46;99465.16;;;23.70;100.00
5595;BME280;1003;48.002;7.788;2023-09-07T07:42:15;99459.69;;;24.18;100.00
5595;BME280;1003;48.002;7.788;2023-09-07T07:44:44;99464.41;;;23.68;100.00
5595;BME280;1003;48.002;7.788;2023-09-07T07:47:11;99456.31;;;23.60;100.00
5595;BME280;1003;48.002;7.788;2023-09-07T07:49:38;99459.91;;;23.13;100.00
5595;BME280;1003;48.002;7.788;2023-09-07T07:52:05;99455.47;;;23.31;100.00
5595;BME280;1003;48.002;7.788;2023-09-07T07:54:33;99461.16;;;23.36;100.00
5595;BME280;1003;48.002;7.788;2023-09-07T07:57:01;99454.66;;;23.30;100.00
5595;BME280;1003;48.002;7.788;2023-09-07T07:59:30;99463.44;;;23.41;100.00
5595;BME280;1003;48.002;7.788;2023-09-07T08:01:57;99465.50;;;23.64;100.00
5595;BME280;1003;48.002;7.788;2023-09-07T08:04:24;99465.31;;;23.67;100.00
5595;BME280;1003;48.002;7.788;2023-09-07T08:06:51;99473.13;;;23.80;100.00
5595;BME280;1003;48.002;7.788;2023-09-07T08:09:22;99483.28;;;23.67;100.00
5595;BME280;1003;48.002;7.788;2023-09-07T08:11:49;99476.50;;;23.66;100.00
5595;BME280;1003;48.002;7.788;2023-09-07T08:14:17;99481.63;;;23.52;100.00
5595;BME280;1003;48.002;7.788;2023-09-07T08:16:45;99487.78;;;23.78;100.00
5595;BME280;1003;48.002;7.788;2023-09-07T08:19:12;99488.78;;;24.04;100.00
5595;BME280;1003;48.002;7.788;2023-09-07T08:21:39;99485.22;;;23.64;100.00
5595;BME280;1003;48.002;7.788;2023-09-07T08:24:08;99483.38;;;23.66;100.00
5595;BME280;1003;48.002;7.788;2023-09-07T08:26:36;99498.16;;;23.76;100.00
5595;BME280;1003;48.002;7.788;2023-09-07T08:29:03;99486.03;;;23.78;100.00
5595;BME280;1003;48.002;7.788;2023-09-07T08:31:32;99492.13;;;23.62;100.00
5595;BME280;1003;48.002;7.788;2023-09-07T08:34:00;99499.56;;;23.52;100.00
5595;BME280;1003;48.002;7.788;2023-09-07T08:36:29;99501.63;;;23.75;100.00
5595;BME280;1003;48.002;7.788;2023-09-07T08:38:58;99501.44;;;23.78;100.00
5595;BME280;1003;48.002;7.788;2023-09-07T08:41:28;99507.84;;;24.14;100.00
5595;BME280;1003;48.002;7.788;2023-09-07T08:43:57;99505.19;;;24.30;100.00
5595;BME280;1003;48.002;7.788;2023-09-07T08:46:25;99499.63;;;23.95;100.00
5595;BME280;1003;48.002;7.788;2023-09-07T08:48:55;99507.13;;;23.98;100.00
5595;BME280;1003;48.002;7.788;2023-09-07T08:51:26;99516.69;;;23.96;100.00
5595;BME280;1003;48.002;7.788;2023-09-07T08:53:54;99499.34;;;23.71;100.00
5595;BME280;1003;48.002;7.788;2023-09-07T08:56:22;99502.28;;;23.79;100.00
5595;BME280;1003;48.002;7.788;2023-09-07T08:58:50;99509.22;;;23.77;100.00
5595;BME280;1003;48.002;7.788;2023-09-07T09:01:18;99511.03;;;23.61;100.00
5595;BME280;1003;48.002;7.788;2023-09-07T09:03:48;99511.81;;;23.63;100.00
5595;BME280;1003;48.002;7.788;2023-09-07T09:06:20;99515.75;;;23.68;100.00
5595;BME280;1003;48.002;7.788;2023-09-07T09:08:50;99514.50;;;23.60;100.00
5595;BME280;1003;48.002;7.788;2023-09-07T09:11:18;99524.28;;;23.69;100.00
5595;BME280;1003;48.002;7.788;2023-09-07T09:13:47;99523.00;;;23.76;100.00
5595;BME280;1003;48.002;7.788;2023-09-07T09:16:15;99528.50;;;23.70;100.00
5595;BME280;1003;48.002;7.788;2023-09-07T09:18:48;99524.28;;;23.83;100.00
5595;BME280;1003;48.002;7.788;2023-09-07T09:21:17;99519.78;;;23.72;100.00
5595;BME280;1003;48.002;7.788;2023-09-07T09:23:50;99534.09;;;23.76;100.00
5595;BME280;1003;48.002;7.788;2023-09-07T09:26:18;99520.88;;;23.82;100.00
5595;BME280;1003;48.002;7.788;2023-09-07T09:28:45;99514.47;;;23.75;100.00
5595;BME280;1003;48.002;7.788;2023-09-07T09:31:14;99508.97;;;23.96;100.00
5595;BME280;1003;48.002;7.788;2023-09-07T09:33:42;99511.34;;;24.27;100.00
5595;BME280;1003;48.002;7.788;2023-09-07T09:36:09;99509.72;;;24.53;100.00
5595;BME280;1003;48.002;7.788;2023-09-07T09:38:36;99496.13;;;24.66;100.00
5595;BME280;1003;48.002;7.788;2023-09-07T09:41:08;99489.03;;;24.69;100.00
5595;BME280;1003;48.002;7.788;2023-09-07T09:43:36;99481.19;;;24.58;100.00
5595;BME280;1003;48.002;7.788;2023-09-07T09:46:05;99487.59;;;24.65;100.00
5595;BME280;1003;48.002;7.788;2023-09-07T09:48:36;99491.03;;;24.78;100.00
5595;BME280;1003;48.002;7.788;2023-09-07T09:51:04;99477.88;;;24.83;100.00
5595;BME280;1003;48.002;7.788;2023-09-07T09:53:32;99479.97;;;24.64;100.00
5595;BME280;1003;48.002;7.788;2023-09-07T09:55:59;99475.75;;;24.63;100.00
5595;BME280;1003;48.002;7.788;2023-09-07T09:58:27;99474.28;;;24.85;100.00
5595;BME280;1003;48.002;7.788;2023-09-07T10:00:57;99459.38;;;24.91;100.00
5595;BME280;1003;48.002;7.788;2023-09-07T10:03:29;99449.91;;;24.91;100.00
5595;BME280;1003;48.002;7.788;2023-09-07T10:06:08;99446.53;;;24.91;100.00
5595;BME280;1003;48.002;7.788;2023-09-07T10:08:35;99419.06;;;24.91;100.00
5595;BME280;1003;48.002;7.788;2023-09-07T10:11:08;99432.88;;;25.03;100.00
5595;BME280;1003;48.002;7.788;2023-09-07T10:13:37;99438.16;;;25.14;100.00
5595;BME280;1003;48.002;7.788;2023-09-07T10:16:06;99427.88;;;25.14;100.00
5595;BME280;1003;48.002;7.788;2023-09-07T10:18:36;99421.91;;;25.13;100.00
5595;BME280;1003;48.002;7.788;2023-09-07T10:21:04;99414.59;;;25.20;100.00
5595;BME280;1003;48.002;7.788;2023-09-07T10:23:39;99409.44;;;25.33;100.00
5595;BME280;1003;48.002;7.788;2023-09-07T10:26:12;99397.00;;;25.52;100.00
5595;BME280;1003;48.002;7.788;2023-09-07T10:28:41;99388.41;;;25.64;100.00
5595;BME280;1003;48.002;7.788;2023-09-07T10:31:15;99377.41;;;25.50;100.00
5595;BME280;1003;48.002;7.788;2023-09-07T10:33:42;99383.16;;;25.66;100.00
5595;BME280;1003;48.002;7.788;2023-09-07T10:36:20;99393.94;;;25.97;100.00
5595;BME280;1003;48.002;7.788;2023-09-07T10:38:48;99385.25;;;26.10;100.00
5595;BME280;1003;48.002;7.788;2023-09-07T10:41:15;99377.31;;;26.25;100.00
5595;BME280;1003;48.002;7.788;2023-09-07T10:43:50;99370.69;;;26.33;100.00
5595;BME280;1003;48.002;7.788;2023-09-07T10:46:19;99366.72;;;26.40;100.00
5595;BME280;1003;48.002;7.788;2023-09-07T10:48:49;99361.97;;;26.47;100.00
5595;BME280;1003;48.002;7.788;2023-09-07T10:51:17;99358.38;;;26.50;100.00
5595;BME280;1003;48.002;7.788;2023-09-07T10:53:44;99347.38;;;26.48;100.00
5595;BME280;1003;48.002;7.788;2023-09-07T10:56:12;99343.72;;;26.50;100.00
5595;BME280;1003;48.002;7.788;2023-09-07T10:58:40;99341.75;;;26.54;100.00
5595;BME280;1003;48.002;7.788;2023-09-07T11:01:09;99320.66;;;26.36;100.00
5595;BME280;1003;48.002;7.788;2023-09-07T11:03:37;99325.00;;;26.35;100.00
5595;BME280;1003;48.002;7.788;2023-09-07T11:06:09;99320.53;;;26.26;100.00
5595;BME280;1003;48.002;7.788;2023-09-07T11:08:37;99324.28;;;26.22;100.00
5595;BME280;1003;48.002;7.788;2023-09-07T11:11:04;99327.75;;;26.10;100.00
5595;BME280;1003;48.002;7.788;2023-09-07T11:13:32;99326.19;;;26.07;100.00
5595;BME280;1003;48.002;7.788;2023-09-07T11:16:00;99321.94;;;26.30;100.00
5595;BME280;1003;48.002;7.788;2023-09-07T11:18:29;99319.69;;;26.50;100.00
5595;BME280;1003;48.002;7.788;2023-09-07T11:20:56;99318.56;;;26.65;100.00
5595;BME280;1003;48.002;7.788;2023-09-07T11:23:25;99300.41;;;26.78;100.00
5595;BME280;1003;48.002;7.788;2023-09-07T11:25:52;99304.06;;;26.86;100.00
5595;BME280;1003;48.002;7.788;2023-09-07T11:28:19;99299.94;;;26.84;100.00
5595;BME280;1003;48.002;7.788;2023-09-07T11:30:52;99297.03;;;26.88;100.00
5595;BME280;1003;48.002;7.788;2023-09-07T11:33:21;99295.25;;;26.89;100.00
5595;BME280;1003;48.002;7.788;2023-09-07T11:35:50;99302.78;;;26.81;100.00
5595;BME280;1003;48.002;7.788;2023-09-07T11:38:18;99289.53;;;26.85;100.00
5595;BME280;1003;48.002;7.788;2023-09-07T11:40:45;99289.16;;;26.90;100.00
5595;BME280;1003;48.002;7.788;2023-09-07T11:43:12;99285.06;;;26.76;100.00
5595;BME280;1003;48.002;7.788;2023-09-07T11:45:40;99286.72;;;26.88;100.00
5595;BME280;1003;48.002;7.788;2023-09-07T11:48:07;99280.16;;;27.07;100.00
5595;BME280;1003;48.002;7.788;2023-09-07T11:50:36;99269.38;;;27.13;100.00
5595;BME280;1003;48.002;7.788;2023-09-07T11:53:05;99263.34;;;27.01;100.00
5595;BME280;1003;48.002;7.788;2023-09-07T11:55:34;99262.66;;;26.99;100.00
5595;BME280;1003;48.002;7.788;2023-09-07T11:58:02;99257.75;;;26.96;100.00
5595;BME280;1003;48.002;7.788;2023-09-07T12:00:29;99266.53;;;27.05;100.00
5595;BME280;1003;48.002;7.788;2023-09-07T12:02:57;99264.91;;;27.04;100.00
5595;BME280;1003;48.002;7.788;2023-09-07T12:05:24;99258.78;;;27.05;100.00
5595;BME280;1003;48.002;7.788;2023-09-07T12:07:51;99266.06;;;27.22;100.00
5595;BME280;1003;48.002;7.788;2023-09-07T12:10:20;99253.63;;;27.38;100.00
5595;BME280;1003;48.002;7.788;2023-09-07T12:12:47;99248.69;;;27.46;100.00
5595;BME280;1003;48.002;7.788;2023-09-07T12:15:14;99245.63;;;27.41;100.00
5595;BME280;1003;48.002;7.788;2023-09-07T12:17:41;99249.88;;;27.31;100.00
5595;BME280;1003;48.002;7.788;2023-09-07T12:20:09;99239.34;;;27.34;100.00
5595;BME280;1003;48.002;7.788;2023-09-07T12:22:39;99239.09;;;27.26;100.00
5595;BME280;1003;48.002;7.788;2023-09-07T12:25:07;99240.47;;;27.41;100.00
5595;BME280;1003;48.002;7.788;2023-09-07T12:27:37;99243.94;;;27.63;100.00
5595;BME280;1003;48.002;7.788;2023-09-07T12:30:06;99241.69;;;27.69;100.00
5595;BME280;1003;48.002;7.788;2023-09-07T12:32:38;99237.66;;;27.88;100.00
5595;BME280;1003;48.002;7.788;2023-09-07T12:35:06;99234.81;;;27.91;100.00
5595;BME280;1003;48.002;7.788;2023-09-07T12:37:35;99237.16;;;27.94;100.00
5595;BME280;1003;48.002;7.788;2023-09-07T12:40:02;99240.38;;;28.07;100.00
5595;BME280;1003;48.002;7.788;2023-09-07T12:42:39;99231.81;;;28.07;100.00
5595;BME280;1003;48.002;7.788;2023-09-07T12:45:08;99224.56;;;28.01;100.00
5595;BME280;1003;48.002;7.788;2023-09-07T12:47:35;99224.31;;;27.83;100.00
5595;BME280;1003;48.002;7.788;2023-09-07T12:50:02;99222.41;;;27.85;100.00
5595;BME280;1003;48.002;7.788;2023-09-07T12:52:30;99226.47;;;27.98;100.00
5595;BME280;1003;48.002;7.788;2023-09-07T12:54:58;99222.53;;;27.83;100.00
5595;BME280;1003;48.002;7.788;2023-09-07T12:57:24;99219.13;;;27.83;100.00
5595;BME280;1003;48.002;7.788;2023-09-07T12:59:53;99212.06;;;27.85;100.00
5595;BME280;1003;48.002;7.788;2023-09-07T13:02:20;99217.81;;;27.88;100.00
5595;BME280;1003;48.002;7.788;2023-09-07T13:04:47;99210.16;;;27.87;100.00
5595;BME280;1003;48.002;7.788;2023-09-07T13:07:14;99187.25;;;27.93;100.00
5595;BME280;1003;48.002;7.788;2023-09-07T13:09:43;99201.31;;;28.01;100.00
5595;BME280;1003;48.002;7.788;2023-09-07T13:12:10;99200.78;;;28.07;100.00
5595;BME280;1003;48.002;7.788;2023-09-07T13:14:37;99202.50;;;28.17;100.00